Time;durP1;ratioP1;P1;durP2;ratioP2;P2;SDS_P1;SDS_P2;PMS_P1;PMS_P2;Temp;Humidity;BMP_temperature;BMP_pressure;BME280_temperature;BME280_humidity;BME280_pressure;Samples;Min_cycle;Max_cycle;Signal;HPM_P1;HPM_P2
2021/01/13 00:01:41;;;;;;;0.43;0.43;;;2.80;99.90;;;;;;5011414;28;20659;-83
2021/01/13 00:04:09;;;;;;;0.10;0.10;;;2.80;99.90;;;;;;5012198;28;20217;-83
2021/01/13 00:06:34;;;;;;;0.30;0.20;;;2.90;99.90;;;;;;5014348;28;20198;-83
2021/01/13 00:09:00;;;;;;;0.13;0.13;;;2.90;99.90;;;;;;5012931;28;20210;-84
2021/01/13 00:11:26;;;;;;;0.17;0.17;;;2.90;99.90;;;;;;5014148;28;20232;-84
2021/01/13 00:13:51;;;;;;;0.20;0.20;;;2.80;99.90;;;;;;5012295;28;20183;-82
2021/01/13 00:16:17;;;;;;;0.10;0.10;;;2.80;99.90;;;;;;5012769;28;20257;-83
2021/01/13 00:18:43;;;;;;;0.20;0.20;;;2.80;99.90;;;;;;5014005;28;20199;-83
2021/01/13 00:21:15;;;;;;;1.57;1.17;;;2.70;99.90;;;;;;5012060;28;20602;-83
2021/01/13 00:23:45;;;;;;;0.10;0.10;;;2.70;99.90;;;;;;5011914;28;20218;-83
2021/01/13 00:26:21;;;;;;;0.37;0.37;;;2.60;99.90;;;;;;5013860;28;20222;-83
2021/01/13 00:28:51;;;;;;;0.17;0.17;;;2.70;99.90;;;;;;5012365;28;20249;-83
2021/01/13 00:31:17;;;;;;;0.10;0.10;;;2.70;99.90;;;;;;5012030;28;20179;-83
2021/01/13 00:33:47;;;;;;;0.20;0.20;;;2.70;99.90;;;;;;5012933;28;20180;-83
2021/01/13 00:36:21;;;;;;;0.10;0.10;;;2.90;99.90;;;;;;5012237;28;20189;-84
2021/01/13 00:38:47;;;;;;;0.20;0.20;;;2.90;99.90;;;;;;5009971;28;20191;-83
2021/01/13 00:41:13;;;;;;;0.13;0.13;;;2.90;99.90;;;;;;5011382;28;20290;-82
2021/01/13 00:43:39;;;;;;;0.13;0.13;;;2.90;99.90;;;;;;5011275;28;20179;-84
2021/01/13 00:46:05;;;;;;;0.10;0.10;;;2.80;99.90;;;;;;5011889;28;20264;-84
2021/01/13 00:48:30;;;;;;;0.20;0.20;;;2.70;99.90;;;;;;5014216;28;20775;-82
2021/01/13 00:50:56;;;;;;;0.30;0.30;;;2.70;99.90;;;;;;5013637;28;20242;-84
2021/01/13 00:53:21;;;;;;;0.10;0.10;;;2.70;99.90;;;;;;5009999;28;20219;-83
2021/01/13 00:55:47;;;;;;;0.20;0.20;;;2.70;99.90;;;;;;5009873;28;20195;-83
2021/01/13 00:58:12;;;;;;;0.10;0.10;;;2.60;99.90;;;;;;5012037;28;20182;-83
2021/01/13 01:00:38;;;;;;;0.10;0.10;;;2.70;99.90;;;;;;5011272;28;20203;-83
2021/01/13 01:03:04;;;;;;;0.20;0.20;;;2.60;99.90;;;;;;5012973;28;20187;-82
2021/01/13 01:05:30;;;;;;;0.10;0.10;;;2.50;99.90;;;;;;5012313;28;20961;-83
2021/01/13 01:07:55;;;;;;;0.30;0.30;;;2.50;99.90;;;;;;5011493;28;20219;-83
2021/01/13 01:10:31;;;;;;;0.30;0.30;;;2.50;99.90;;;;;;5012612;28;20214;-82
2021/01/13 01:12:58;;;;;;;0.20;0.20;;;2.40;99.90;;;;;;5010784;28;20257;-83
2021/01/13 01:15:24;;;;;;;0.20;0.20;;;2.50;99.90;;;;;;5012594;28;20176;-83
2021/01/13 01:17:50;;;;;;;0.20;0.20;;;2.40;99.90;;;;;;5011938;28;20829;-83
2021/01/13 01:20:17;;;;;;;0.10;0.10;;;2.40;99.90;;;;;;5007567;28;20203;-83
2021/01/13 01:23:09;;;;;;;0.20;0.20;;;2.40;99.90;;;;;;5011354;28;20334;-83
2021/01/13 01:25:35;;;;;;;0.20;0.20;;;2.30;99.90;;;;;;5009801;28;20254;-83
2021/01/13 01:28:01;;;;;;;0.10;0.10;;;2.30;99.90;;;;;;5013200;28;20210;-84
2021/01/13 01:30:28;;;;;;;0.27;0.27;;;2.30;99.90;;;;;;5013408;28;20713;-83
2021/01/13 01:32:54;;;;;;;0.30;0.30;;;2.30;99.90;;;;;;5011670;28;20179;-84
2021/01/13 01:35:20;;;;;;;0.20;0.20;;;2.30;99.90;;;;;;5012435;28;20278;-83
2021/01/13 01:37:46;;;;;;;0.33;0.33;;;2.20;99.90;;;;;;5013953;28;20702;-83
2021/01/13 01:40:15;;;;;;;1.90;0.60;;;2.20;99.90;;;;;;5013160;28;20290;-83
2021/01/13 01:42:48;;;;;;;0.37;0.30;;;2.10;99.90;;;;;;5010974;28;20221;-83
2021/01/13 01:45:17;;;;;;;0.20;0.20;;;2.10;99.90;;;;;;5000909;28;20175;-83
2021/01/13 01:48:16;;;;;;;0.20;0.20;;;2.10;99.90;;;;;;5012992;28;20218;-83
2021/01/13 01:50:45;;;;;;;0.10;0.10;;;2.10;99.90;;;;;;5013329;28;20219;-84
2021/01/13 01:53:13;;;;;;;0.10;0.10;;;2.20;99.90;;;;;;5011390;28;20187;-84
2021/01/13 01:56:10;;;;;;;0.30;0.30;;;2.10;99.90;;;;;;5009256;28;20897;-84
2021/01/13 01:58:36;;;;;;;0.10;0.10;;;2.20;99.90;;;;;;4998062;28;20249;-84
2021/01/13 02:01:04;;;;;;;0.20;0.20;;;2.10;99.90;;;;;;5009175;28;20694;-83
2021/01/13 02:03:49;;;;;;;2.00;0.87;;;2.10;99.90;;;;;;5009756;28;20225;-84
2021/01/13 02:06:17;;;;;;;0.10;0.10;;;2.10;99.90;;;;;;4999218;28;20211;-84
2021/01/13 02:08:44;;;;;;;0.17;0.17;;;2.10;99.90;;;;;;5010543;28;20223;-83
2021/01/13 02:11:18;;;;;;;0.10;0.10;;;2.10;99.90;;;;;;5011622;28;20199;-84
2021/01/13 02:13:44;;;;;;;1.20;0.50;;;2.10;99.90;;;;;;5011589;28;20179;-84
2021/01/13 02:16:11;;;;;;;0.07;0.07;;;2.10;99.90;;;;;;5010082;28;20274;-84
2021/01/13 02:18:39;;;;;;;0.00;0.00;;;2.10;99.90;;;;;;5008921;28;20613;-83
2021/01/13 02:21:12;;;;;;;0.10;0.10;;;2.00;99.90;;;;;;4999446;28;20187;-84
2021/01/13 02:24:07;;;;;;;0.10;0.10;;;2.00;99.90;;;;;;5009969;28;20198;-84
2021/01/13 02:27:21;;;;;;;0.10;0.10;;;2.00;99.90;;;;;;4974547;28;20223;-84
2021/01/13 02:29:57;;;;;;;0.10;0.10;;;2.10;99.90;;;;;;5011072;28;20299;-83
2021/01/13 02:32:27;;;;;;;0.00;0.00;;;2.10;99.90;;;;;;4998133;28;20203;-84
2021/01/13 02:35:26;;;;;;;0.10;0.10;;;2.10;99.90;;;;;;5011652;28;20179;-84
2021/01/13 02:38:12;;;;;;;0.10;0.10;;;2.10;99.90;;;;;;5018264;28;20194;-84
2021/01/13 02:40:48;;;;;;;0.10;0.10;;;2.00;99.90;;;;;;5013090;28;20683;-84
2021/01/13 02:43:16;;;;;;;1.90;1.20;;;2.10;99.90;;;;;;5013196;28;20393;-84
2021/01/13 02:45:46;;;;;;;0.30;0.20;;;2.10;99.90;;;;;;5013565;28;20175;-83
2021/01/13 02:48:22;;;;;;;0.20;0.20;;;2.10;99.90;;;;;;5010955;28;20195;-84
2021/01/13 02:50:59;;;;;;;0.10;0.10;;;2.00;99.90;;;;;;5015654;28;20214;-84
2021/01/13 02:53:32;;;;;;;0.37;0.37;;;1.90;99.90;;;;;;5013637;28;20195;-84
2021/01/13 02:56:07;;;;;;;0.00;0.00;;;1.90;99.90;;;;;;5011051;28;20191;-83
2021/01/13 02:58:37;;;;;;;0.07;0.07;;;2.00;99.90;;;;;;5015189;28;20191;-84
2021/01/13 03:01:06;;;;;;;0.10;0.10;;;2.00;99.90;;;;;;5014782;28;20325;-84
2021/01/13 03:03:33;;;;;;;0.10;0.10;;;2.00;99.90;;;;;;5014376;28;20222;-83
2021/01/13 03:06:09;;;;;;;1.03;0.50;;;1.90;99.90;;;;;;5014176;28;20199;-83
2021/01/13 03:09:00;;;;;;;0.00;0.00;;;1.80;99.90;;;;;;5014070;28;20523;-83
2021/01/13 03:11:26;;;;;;;0.20;0.20;;;1.80;99.90;;;;;;5011216;28;20243;-83
2021/01/13 03:13:57;;;;;;;0.40;0.33;;;1.70;99.90;;;;;;5013868;28;20270;-83
2021/01/13 03:16:27;;;;;;;0.30;0.30;;;1.60;99.90;;;;;;5015415;28;20194;-83
2021/01/13 03:18:57;;;;;;;0.10;0.10;;;1.60;99.90;;;;;;5013630;28;20208;-84
2021/01/13 03:21:40;;;;;;;0.20;0.20;;;1.60;99.90;;;;;;5014571;28;20221;-83
2021/01/13 03:24:21;;;;;;;0.00;0.00;;;1.50;99.90;;;;;;5013539;28;20198;-84
2021/01/13 03:26:48;;;;;;;0.20;0.20;;;1.50;99.90;;;;;;5014900;28;20209;-83
2021/01/13 03:29:20;;;;;;;0.30;0.30;;;1.50;99.90;;;;;;5013758;28;20289;-84
2021/01/13 03:32:03;;;;;;;0.10;0.10;;;1.40;99.90;;;;;;5012704;28;20185;-84
2021/01/13 03:34:30;;;;;;;1.23;1.13;;;1.40;99.90;;;;;;5010302;28;20643;-83
2021/01/13 03:37:25;;;;;;;0.10;0.10;;;1.40;99.90;;;;;;5013657;28;20189;-84
2021/01/13 03:39:56;;;;;;;0.17;0.17;;;1.30;99.90;;;;;;5010665;28;20257;-84
2021/01/13 03:42:23;;;;;;;3.20;0.57;;;1.40;99.90;;;;;;5012476;28;20277;-83
2021/01/13 03:44:49;;;;;;;0.60;0.60;;;1.40;99.90;;;;;;5013663;28;20835;-83
2021/01/13 03:47:53;;;;;;;0.10;0.10;;;1.30;99.90;;;;;;5012317;28;20308;-84
2021/01/13 03:50:24;;;;;;;0.20;0.20;;;1.30;99.90;;;;;;5010778;28;20210;-84
2021/01/13 03:52:57;;;;;;;0.00;0.00;;;1.40;99.90;;;;;;5011900;28;20187;-84
2021/01/13 03:55:30;;;;;;;0.40;0.10;;;1.40;99.90;;;;;;5010810;28;20563;-84
2021/01/13 03:58:05;;;;;;;0.10;0.10;;;1.30;99.90;;;;;;5013270;28;20639;-84
2021/01/13 04:00:41;;;;;;;0.10;0.10;;;1.30;99.90;;;;;;5012850;28;20218;-83
2021/01/13 04:03:18;;;;;;;0.10;0.10;;;1.20;99.90;;;;;;5001053;28;20183;-84
2021/01/13 04:06:04;;;;;;;0.30;0.30;;;1.20;99.90;;;;;;5012705;28;20190;-84
2021/01/13 04:08:43;;;;;;;0.20;0.20;;;1.20;99.90;;;;;;5006231;28;20218;-84
2021/01/13 04:11:15;;;;;;;0.50;0.33;;;1.20;99.90;;;;;;5011376;28;20189;-83
2021/01/13 04:13:43;;;;;;;1.07;0.40;;;1.20;99.90;;;;;;5013705;28;20221;-84
2021/01/13 04:16:11;;;;;;;0.60;0.60;;;1.20;99.90;;;;;;5012706;28;20210;-83
2021/01/13 04:18:37;;;;;;;0.10;0.10;;;1.20;99.90;;;;;;5011338;28;20177;-84
2021/01/13 04:21:05;;;;;;;0.10;0.10;;;1.20;99.90;;;;;;5013424;28;20187;-84
2021/01/13 04:23:31;;;;;;;0.30;0.30;;;1.20;99.90;;;;;;5011274;28;20198;-84
2021/01/13 04:25:58;;;;;;;0.47;0.47;;;1.20;99.90;;;;;;5012519;28;20273;-83
2021/01/13 04:28:24;;;;;;;0.10;0.10;;;1.10;99.90;;;;;;5011806;28;20175;-84
2021/01/13 04:30:50;;;;;;;0.10;0.10;;;1.20;99.90;;;;;;5012057;28;20214;-83
2021/01/13 04:33:16;;;;;;;5.57;0.30;;;1.20;99.90;;;;;;5012124;28;20190;-84
2021/01/13 04:35:41;;;;;;;0.10;0.10;;;1.20;99.90;;;;;;5014039;28;20669;-84
2021/01/13 04:38:09;;;;;;;0.30;0.30;;;1.20;99.90;;;;;;5013884;28;20266;-84
2021/01/13 04:40:37;;;;;;;0.10;0.10;;;1.20;99.90;;;;;;5012097;28;20679;-84
2021/01/13 04:43:11;;;;;;;0.13;0.13;;;1.10;99.90;;;;;;5012680;28;20187;-84
2021/01/13 04:45:36;;;;;;;0.10;0.10;;;1.20;99.90;;;;;;5014972;28;20193;-83
2021/01/13 04:48:14;;;;;;;0.10;0.10;;;1.20;99.90;;;;;;5014408;28;20212;-84
2021/01/13 04:50:45;;;;;;;0.20;0.20;;;1.10;99.90;;;;;;5026638;28;20224;-84
2021/01/13 04:53:18;;;;;;;0.10;0.10;;;1.10;99.90;;;;;;5004239;28;20183;-83
2021/01/13 04:55:47;;;;;;;0.27;0.27;;;1.10;99.90;;;;;;5029663;28;20210;-84
2021/01/13 04:58:32;;;;;;;0.10;0.10;;;1.10;99.90;;;;;;5012499;28;20183;-83
2021/01/13 05:01:12;;;;;;;0.10;0.10;;;1.10;99.90;;;;;;5009808;28;20318;-84
2021/01/13 05:03:43;;;;;;;0.20;0.20;;;1.00;99.90;;;;;;5005434;28;20187;-83
2021/01/13 05:06:32;;;;;;;1.43;0.30;;;1.00;99.90;;;;;;5012529;28;20207;-84
2021/01/13 05:09:07;;;;;;;0.63;0.37;;;1.00;99.90;;;;;;5006799;28;20710;-84
2021/01/13 05:11:45;;;;;;;0.10;0.10;;;1.10;99.90;;;;;;5011286;28;20190;-84
2021/01/13 05:14:13;;;;;;;0.10;0.10;;;1.10;99.90;;;;;;5007460;28;20967;-82
2021/01/13 05:16:50;;;;;;;0.07;0.07;;;1.10;99.90;;;;;;4999387;28;20301;-83
2021/01/13 05:20:00;;;;;;;0.10;0.10;;;1.10;99.90;;;;;;5001167;28;20207;-86
2021/01/13 05:22:25;;;;;;;0.10;0.10;;;1.00;99.90;;;;;;5003350;28;20214;-83
2021/01/13 05:24:53;;;;;;;0.20;0.20;;;1.00;99.90;;;;;;5011030;28;20202;-82
2021/01/13 05:27:47;;;;;;;0.23;0.23;;;1.00;99.90;;;;;;5009439;28;20694;-83
2021/01/13 05:30:13;;;;;;;0.40;0.40;;;1.10;99.90;;;;;;5010582;28;20210;-81
2021/01/13 05:32:42;;;;;;;0.27;0.27;;;1.10;99.90;;;;;;5007385;28;20702;-82
2021/01/13 05:35:09;;;;;;;0.37;0.13;;;1.10;99.90;;;;;;5023243;28;20183;-82
2021/01/13 05:38:08;;;;;;;0.00;0.00;;;1.10;99.90;;;;;;5009040;28;20195;-83
2021/01/13 05:40:46;;;;;;;2.57;0.50;;;1.10;99.90;;;;;;5010220;28;20230;-83
2021/01/13 05:43:12;;;;;;;0.10;0.10;;;1.10;99.90;;;;;;5008601;28;20187;-83
2021/01/13 05:45:40;;;;;;;0.93;0.93;;;1.20;99.90;;;;;;5010071;28;20241;-83
2021/01/13 05:48:14;;;;;;;0.27;0.27;;;1.20;99.90;;;;;;5010586;28;20582;-83
2021/01/13 05:50:40;;;;;;;0.10;0.10;;;1.30;99.90;;;;;;5011280;28;20352;-82
2021/01/13 05:53:06;;;;;;;2.23;0.57;;;1.30;99.90;;;;;;5011318;28;20186;-82
2021/01/13 05:55:32;;;;;;;0.20;0.20;;;1.30;99.90;;;;;;5011007;28;20214;-83
2021/01/13 05:57:59;;;;;;;0.60;0.20;;;1.30;99.90;;;;;;5010849;28;20182;-83
2021/01/13 06:00:26;;;;;;;0.10;0.10;;;1.30;99.90;;;;;;5009001;28;20215;-83
2021/01/13 06:02:58;;;;;;;0.33;0.33;;;1.20;99.90;;;;;;5003502;28;20270;-83
2021/01/13 06:05:25;;;;;;;0.10;0.10;;;1.20;99.90;;;;;;5025424;28;20644;-83
2021/01/13 06:07:52;;;;;;;0.50;0.50;;;1.20;99.90;;;;;;5010017;28;20214;-83
2021/01/13 06:10:19;;;;;;;0.10;0.10;;;1.20;99.90;;;;;;5006305;28;20242;-83
2021/01/13 06:12:49;;;;;;;2.47;0.40;;;1.30;99.90;;;;;;5014102;28;20183;-83
2021/01/13 06:15:23;;;;;;;0.30;0.30;;;1.40;99.90;;;;;;5010548;28;20222;-82
2021/01/13 06:17:51;;;;;;;1.40;0.93;;;1.50;99.90;;;;;;5015433;28;20213;-84
2021/01/13 06:20:21;;;;;;;0.20;0.20;;;1.50;99.90;;;;;;5014606;28;20210;-84
2021/01/13 06:22:48;;;;;;;0.03;0.03;;;1.50;99.90;;;;;;5014943;28;20190;-83
2021/01/13 06:25:21;;;;;;;0.20;0.20;;;1.40;99.90;;;;;;5015020;28;20202;-86
2021/01/13 06:27:56;;;;;;;0.17;0.10;;;1.40;99.90;;;;;;5012810;28;20249;-83
2021/01/13 06:30:30;;;;;;;0.23;0.23;;;1.40;99.90;;;;;;5014762;28;20237;-83
2021/01/13 06:33:08;;;;;;;0.10;0.10;;;1.30;99.90;;;;;;5014290;28;20647;-83
2021/01/13 06:35:42;;;;;;;0.30;0.30;;;1.20;99.90;;;;;;5010990;28;20261;-84
2021/01/13 06:38:42;;;;;;;0.50;0.50;;;1.20;99.90;;;;;;5019205;28;20185;-84
2021/01/13 06:41:09;;;;;;;0.20;0.20;;;1.20;99.90;;;;;;5015706;28;20195;-84
2021/01/13 06:43:35;;;;;;;0.10;0.10;;;1.10;99.90;;;;;;5013753;28;20206;-81
2021/01/13 06:46:00;;;;;;;0.30;0.30;;;1.20;99.90;;;;;;5028364;28;20183;-83
2021/01/13 06:48:27;;;;;;;1.50;1.13;;;1.20;99.90;;;;;;5014868;28;20201;-82
2021/01/13 06:50:58;;;;;;;0.87;0.30;;;1.30;99.90;;;;;;5009888;28;20299;-83
2021/01/13 06:53:33;;;;;;;0.30;0.30;;;1.40;99.90;;;;;;5026284;28;20809;-83
2021/01/13 06:56:08;;;;;;;0.60;0.60;;;1.40;99.90;;;;;;5013403;28;20205;-83
2021/01/13 06:58:35;;;;;;;1.23;0.30;;;1.40;99.90;;;;;;5009754;28;20190;-84
2021/01/13 07:01:02;;;;;;;0.10;0.10;;;1.40;99.90;;;;;;5007710;28;20598;-83
2021/01/13 07:03:29;;;;;;;0.10;0.10;;;1.40;99.90;;;;;;5023665;28;20217;-83
2021/01/13 07:06:11;;;;;;;0.17;0.17;;;1.40;99.90;;;;;;5011911;28;20187;-80
2021/01/13 07:08:37;;;;;;;0.20;0.20;;;1.40;99.90;;;;;;5011145;28;20277;-81
2021/01/13 07:11:08;;;;;;;0.50;0.20;;;1.40;99.90;;;;;;5010132;28;20294;-82
2021/01/13 07:13:39;;;;;;;0.10;0.10;;;1.40;99.90;;;;;;5008264;28;20194;-82
2021/01/13 07:16:06;;;;;;;0.47;0.47;;;1.50;99.90;;;;;;5009104;28;20187;-82
2021/01/13 07:18:33;;;;;;;0.10;0.10;;;1.50;99.90;;;;;;5006119;28;20191;-81
2021/01/13 07:21:06;;;;;;;0.10;0.10;;;1.50;99.90;;;;;;5008482;28;20258;-82
2021/01/13 07:23:33;;;;;;;0.27;0.27;;;1.50;99.90;;;;;;5009124;28;20210;-82
2021/01/13 07:25:59;;;;;;;0.20;0.20;;;1.60;99.90;;;;;;5006868;28;20179;-81
2021/01/13 07:28:25;;;;;;;0.20;0.20;;;1.60;99.90;;;;;;5009262;28;20529;-81
2021/01/13 07:30:53;;;;;;;0.70;0.40;;;1.70;99.90;;;;;;5011786;28;20202;-82
2021/01/13 07:33:19;;;;;;;0.10;0.10;;;1.80;99.90;;;;;;5003031;28;20183;-81
2021/01/13 07:35:47;;;;;;;0.10;0.10;;;1.80;99.90;;;;;;5009011;28;20194;-82
2021/01/13 07:38:18;;;;;;;0.17;0.17;;;1.90;99.90;;;;;;5010901;28;20326;-82
2021/01/13 07:41:00;;;;;;;0.10;0.10;;;1.80;99.90;;;;;;5006394;28;20219;-81
2021/01/13 07:44:04;;;;;;;0.00;0.00;;;1.90;99.90;;;;;;5009682;28;20256;-82
2021/01/13 07:46:32;;;;;;;0.60;0.60;;;1.90;99.90;;;;;;5025632;28;20202;-82
2021/01/13 07:49:21;;;;;;;0.97;0.97;;;1.90;99.90;;;;;;5006934;28;20200;-83
2021/01/13 07:51:54;;;;;;;4.80;0.40;;;1.90;99.90;;;;;;5008071;28;20757;-83
2021/01/13 07:54:26;;;;;;;0.20;0.20;;;2.00;99.90;;;;;;5010135;28;20183;-84
2021/01/13 07:56:55;;;;;;;0.10;0.10;;;2.00;99.90;;;;;;5008070;28;20657;-84
2021/01/13 07:59:34;;;;;;;0.40;0.40;;;2.00;99.90;;;;;;5012569;28;20281;-84
2021/01/13 08:02:25;;;;;;;0.83;0.27;;;2.10;99.90;;;;;;5008462;28;20286;-83
2021/01/13 08:05:21;;;;;;;0.10;0.10;;;2.10;99.90;;;;;;5013144;28;20214;-84
2021/01/13 08:08:00;;;;;;;0.10;0.10;;;2.20;99.90;;;;;;5009597;28;20249;-83
2021/01/13 08:10:29;;;;;;;0.87;0.87;;;2.20;99.90;;;;;;5017268;28;20262;-83
2021/01/13 08:13:17;;;;;;;0.20;0.20;;;2.20;99.90;;;;;;5028876;28;20194;-83
2021/01/13 08:16:15;;;;;;;0.30;0.30;;;2.20;99.90;;;;;;5008090;28;20183;-83
2021/01/13 08:19:15;;;;;;;0.50;0.50;;;2.10;99.90;;;;;;5011116;28;20205;-82
2021/01/13 08:21:54;;;;;;;0.10;0.10;;;2.10;99.90;;;;;;4992593;28;20221;-82
2021/01/13 08:24:25;;;;;;;0.30;0.30;;;2.10;99.90;;;;;;5012259;28;20191;-82
2021/01/13 08:26:51;;;;;;;0.63;0.63;;;2.10;99.90;;;;;;5011575;28;20263;-81
2021/01/13 08:29:20;;;;;;;0.10;0.10;;;2.10;99.90;;;;;;5021979;28;20215;-80
2021/01/13 08:32:02;;;;;;;0.10;0.10;;;2.20;99.90;;;;;;5005907;28;20187;-81
2021/01/13 08:34:37;;;;;;;1.40;0.43;;;2.20;99.90;;;;;;5013219;28;20191;-82
2021/01/13 08:37:03;;;;;;;0.40;0.40;;;2.30;99.90;;;;;;5013412;28;20647;-82
2021/01/13 08:39:31;;;;;;;0.70;0.50;;;2.60;99.90;;;;;;5009899;28;20234;-82
2021/01/13 08:42:33;;;;;;;0.10;0.10;;;2.60;99.90;;;;;;5013299;28;20187;-83
2021/01/13 08:45:00;;;;;;;0.20;0.20;;;2.80;99.90;;;;;;4970541;28;20291;-88
2021/01/13 08:47:27;;;;;;;0.10;0.10;;;2.90;99.90;;;;;;5004525;28;21144;-83
2021/01/13 08:50:14;;;;;;;0.40;0.40;;;3.00;99.90;;;;;;5004662;28;20203;-82
2021/01/13 08:52:48;;;;;;;0.20;0.20;;;3.20;99.90;;;;;;5012312;28;20187;-83
2021/01/13 08:55:15;;;;;;;0.67;0.40;;;3.30;99.90;;;;;;5014517;28;20218;-84
2021/01/13 08:57:57;;;;;;;0.20;0.20;;;3.40;99.90;;;;;;5011159;28;20218;-84
2021/01/13 09:00:24;;;;;;;0.10;0.10;;;3.40;99.90;;;;;;5025302;28;20210;-82
2021/01/13 09:03:07;;;;;;;0.87;0.83;;;3.50;99.90;;;;;;5009701;28;20725;-82
2021/01/13 09:05:35;;;;;;;0.20;0.20;;;3.60;99.90;;;;;;5009891;28;20205;-83
2021/01/13 09:08:05;;;;;;;0.77;0.43;;;3.70;99.90;;;;;;5012876;28;20688;-82
2021/01/13 09:10:45;;;;;;;0.20;0.20;;;3.70;99.90;;;;;;5010090;28;20758;-83
2021/01/13 09:13:37;;;;;;;0.37;0.37;;;3.80;99.90;;;;;;5007341;28;20186;-83
2021/01/13 09:16:42;;;;;;;0.53;0.33;;;4.00;99.90;;;;;;5009136;28;20275;-83
2021/01/13 09:19:10;;;;;;;0.37;0.37;;;4.10;99.90;;;;;;4946830;29;20220;-82
2021/01/13 09:21:38;;;;;;;0.20;0.20;;;4.10;99.90;;;;;;4995447;28;20205;-83
2021/01/13 09:24:07;;;;;;;0.20;0.20;;;4.10;99.90;;;;;;5012225;28;20194;-83
2021/01/13 09:26:38;;;;;;;0.30;0.30;;;4.20;99.90;;;;;;5009862;28;20215;-83
2021/01/13 09:29:06;;;;;;;0.33;0.33;;;4.40;99.90;;;;;;5014296;28;20233;-83
2021/01/13 09:31:32;;;;;;;0.87;0.23;;;4.50;99.90;;;;;;5011516;28;20370;-83
2021/01/13 09:33:58;;;;;;;1.33;0.43;;;4.70;99.90;;;;;;5011417;28;20189;-83
2021/01/13 09:36:25;;;;;;;0.30;0.30;;;4.90;99.90;;;;;;5013448;28;20274;-83
2021/01/13 09:39:10;;;;;;;0.10;0.10;;;5.00;99.90;;;;;;5008137;28;20599;-83
2021/01/13 09:41:39;;;;;;;0.30;0.30;;;5.30;99.90;;;;;;5009888;28;20191;-82
2021/01/13 09:44:12;;;;;;;0.60;0.60;;;5.30;99.90;;;;;;5009587;28;20282;-83
2021/01/13 09:46:40;;;;;;;0.30;0.30;;;5.40;99.90;;;;;;5008009;28;20208;-84
2021/01/13 09:49:10;;;;;;;0.10;0.10;;;5.30;99.90;;;;;;5010216;28;20596;-84
2021/01/13 09:51:38;;;;;;;0.20;0.20;;;5.30;99.90;;;;;;4997519;28;20191;-84
2021/01/13 09:54:06;;;;;;;0.10;0.10;;;5.40;99.90;;;;;;5022458;28;20219;-84
2021/01/13 09:56:33;;;;;;;0.13;0.13;;;5.50;99.90;;;;;;4999745;28;20188;-83
2021/01/13 09:59:04;;;;;;;9.13;1.67;;;5.60;99.90;;;;;;5013622;28;20283;-84
2021/01/13 10:01:32;;;;;;;1.20;1.10;;;5.60;99.90;;;;;;5008995;28;20244;-83
2021/01/13 10:04:00;;;;;;;0.20;0.20;;;5.40;99.90;;;;;;5012012;28;20328;-84
2021/01/13 10:06:29;;;;;;;0.87;0.40;;;5.30;99.90;;;;;;5011038;28;20211;-84
2021/01/13 10:08:57;;;;;;;0.20;0.20;;;5.20;99.90;;;;;;5011210;28;20695;-85
2021/01/13 10:11:27;;;;;;;0.00;0.00;;;5.10;99.90;;;;;;5003938;28;20191;-84
2021/01/13 10:14:00;;;;;;;0.10;0.10;;;5.00;99.90;;;;;;5011293;28;20202;-83
2021/01/13 10:16:28;;;;;;;0.40;0.33;;;4.80;99.90;;;;;;5028524;28;20227;-84
2021/01/13 10:18:59;;;;;;;0.33;0.33;;;4.80;99.90;;;;;;5011341;28;20262;-84
2021/01/13 10:21:35;;;;;;;0.83;0.83;;;4.90;99.90;;;;;;5014116;28;20234;-84
2021/01/13 10:24:13;;;;;;;0.60;0.60;;;5.00;99.90;;;;;;5010442;28;20651;-84
2021/01/13 10:26:41;;;;;;;0.20;0.20;;;5.10;99.90;;;;;;5011287;28;20221;-84
2021/01/13 10:29:08;;;;;;;0.67;0.47;;;5.10;99.90;;;;;;5013095;28;20204;-84
2021/01/13 10:31:34;;;;;;;1.17;0.80;;;5.10;99.90;;;;;;5008432;28;20174;-83
2021/01/13 10:34:01;;;;;;;0.40;0.40;;;5.10;99.90;;;;;;5010153;28;20188;-84
2021/01/13 10:36:32;;;;;;;0.57;0.57;;;5.10;99.90;;;;;;5010738;28;20262;-84
2021/01/13 10:38:58;;;;;;;3.07;0.30;;;5.10;99.90;;;;;;5009601;28;20219;-84
2021/01/13 10:41:33;;;;;;;2.47;1.80;;;5.00;99.90;;;;;;5006475;28;20385;-84
2021/01/13 10:44:07;;;;;;;0.10;0.10;;;4.90;99.90;;;;;;5011930;28;20211;-84
2021/01/13 10:46:59;;;;;;;0.50;0.50;;;4.90;99.90;;;;;;5012585;28;20223;-84
2021/01/13 10:49:40;;;;;;;0.20;0.20;;;4.90;99.90;;;;;;5011468;28;20204;-84
2021/01/13 10:52:11;;;;;;;0.20;0.20;;;5.00;99.90;;;;;;5009759;28;20189;-84
2021/01/13 10:54:39;;;;;;;0.17;0.10;;;5.10;99.90;;;;;;5025065;28;20672;-84
2021/01/13 10:57:07;;;;;;;0.30;0.30;;;5.10;99.90;;;;;;5011815;28;20193;-85
2021/01/13 10:59:34;;;;;;;0.10;0.10;;;5.20;99.90;;;;;;5017233;28;20701;-85
2021/01/13 11:02:02;;;;;;;0.00;0.00;;;5.30;99.90;;;;;;5016854;28;20255;-85
2021/01/13 11:04:38;;;;;;;0.23;0.23;;;5.40;99.90;;;;;;5012206;28;20197;-87
2021/01/13 11:07:06;;;;;;;0.20;0.20;;;5.60;99.90;;;;;;5007681;28;20205;-86
2021/01/13 11:09:32;;;;;;;0.17;0.17;;;5.60;99.90;;;;;;5027042;28;20232;-87
2021/01/13 11:11:59;;;;;;;0.17;0.17;;;5.60;99.90;;;;;;5010926;28;20185;-85
2021/01/13 11:14:46;;;;;;;0.20;0.20;;;5.70;99.90;;;;;;5010847;28;20184;-84
2021/01/13 11:17:20;;;;;;;0.40;0.40;;;5.80;99.90;;;;;;5007484;28;20201;-85
2021/01/13 11:20:07;;;;;;;0.00;0.00;;;5.90;99.90;;;;;;5012950;28;20210;-85
2021/01/13 11:22:47;;;;;;;0.10;0.10;;;6.00;99.90;;;;;;5009997;28;20192;-85
2021/01/13 11:25:33;;;;;;;0.10;0.10;;;6.10;99.90;;;;;;5012409;28;20178;-86
2021/01/13 11:28:10;;;;;;;0.10;0.10;;;6.10;99.90;;;;;;5010039;28;20260;-85
2021/01/13 11:30:41;;;;;;;0.63;0.63;;;6.40;99.90;;;;;;5008110;28;20717;-85
2021/01/13 11:33:09;;;;;;;0.10;0.10;;;6.80;99.90;;;;;;5010943;28;20185;-86
2021/01/13 11:35:38;;;;;;;0.50;0.50;;;6.90;99.90;;;;;;5011942;28;20257;-83
2021/01/13 11:38:41;;;;;;;0.10;0.10;;;7.00;99.90;;;;;;5015983;28;20281;-84
2021/01/13 11:41:16;;;;;;;0.37;0.17;;;7.40;99.90;;;;;;5002807;28;20199;-84
2021/01/13 11:44:00;;;;;;;0.20;0.20;;;7.50;99.90;;;;;;5009191;28;20192;-85
2021/01/13 11:46:36;;;;;;;0.10;0.10;;;7.50;99.90;;;;;;5012072;28;20199;-86
2021/01/13 11:49:27;;;;;;;0.37;0.37;;;7.30;99.90;;;;;;5012648;28;20210;-86
2021/01/13 11:51:55;;;;;;;0.13;0.13;;;7.10;99.90;;;;;;5012509;28;20248;-85
2021/01/13 11:54:31;;;;;;;0.10;0.10;;;7.20;99.90;;;;;;5011350;28;20202;-86
2021/01/13 11:57:16;;;;;;;0.60;0.60;;;7.40;99.90;;;;;;5011825;28;20212;-86
2021/01/13 11:59:43;;;;;;;1.23;0.80;;;7.30;99.90;;;;;;5011301;28;20209;-86
2021/01/13 12:02:15;;;;;;;0.57;0.57;;;7.50;99.90;;;;;;5000448;28;20249;-85
2021/01/13 12:04:44;;;;;;;0.63;0.20;;;7.50;99.90;;;;;;5027324;28;20219;-86
2021/01/13 12:07:10;;;;;;;0.00;0.00;;;7.70;99.90;;;;;;5012570;28;20664;-86
2021/01/13 12:09:38;;;;;;;0.30;0.30;;;7.50;99.90;;;;;;5009076;28;20242;-86
2021/01/13 12:12:06;;;;;;;0.10;0.10;;;7.70;99.90;;;;;;5008206;28;20183;-86
2021/01/13 12:14:43;;;;;;;0.20;0.20;;;7.50;99.90;;;;;;5009249;28;20325;-84
2021/01/13 12:17:11;;;;;;;0.30;0.30;;;7.50;99.90;;;;;;5010132;28;20186;-85
2021/01/13 12:19:41;;;;;;;0.17;0.17;;;7.50;99.90;;;;;;5026034;28;20722;-84
2021/01/13 12:22:07;;;;;;;12.83;0.40;;;7.50;99.90;;;;;;5006763;28;20191;-82
2021/01/13 12:24:42;;;;;;;3.03;0.40;;;7.50;99.90;;;;;;5013563;28;20215;-83
2021/01/13 12:27:27;;;;;;;0.10;0.10;;;7.60;99.90;;;;;;5007212;28;20434;-82
2021/01/13 12:30:13;;;;;;;0.57;0.20;;;7.80;99.90;;;;;;5018458;28;20706;-83
2021/01/13 12:32:40;;;;;;;0.00;0.00;;;8.00;99.90;;;;;;5025380;28;20194;-82
2021/01/13 12:35:07;;;;;;;0.20;0.10;;;7.70;99.90;;;;;;5014414;28;20536;-83
2021/01/13 12:37:48;;;;;;;0.67;0.57;;;7.40;99.90;;;;;;5016469;28;20665;-83
2021/01/13 12:40:14;;;;;;;0.10;0.10;;;7.30;99.90;;;;;;5013701;28;20245;-84
2021/01/13 12:42:39;;;;;;;0.77;0.57;;;7.30;99.90;;;;;;5013847;28;20187;-83
2021/01/13 12:45:06;;;;;;;1.70;0.47;;;7.30;99.90;;;;;;5015144;28;20273;-83
2021/01/13 12:47:32;;;;;;;0.20;0.20;;;7.30;99.90;;;;;;5015453;28;20218;-83
2021/01/13 12:49:58;;;;;;;0.40;0.40;;;7.40;99.90;;;;;;5019395;28;20213;-83
2021/01/13 12:52:24;;;;;;;0.10;0.10;;;7.10;99.90;;;;;;5015874;28;20194;-83
2021/01/13 12:54:50;;;;;;;0.67;0.20;;;6.90;99.90;;;;;;5013711;28;20282;-84
2021/01/13 12:57:15;;;;;;;2.07;0.37;;;6.40;99.90;;;;;;5013561;28;20183;-84
2021/01/13 12:59:41;;;;;;;0.10;0.10;;;6.40;99.90;;;;;;5013223;28;20210;-83
2021/01/13 13:02:08;;;;;;;0.10;0.10;;;6.30;99.90;;;;;;5014208;28;20228;-84
2021/01/13 13:04:34;;;;;;;0.10;0.10;;;6.20;99.90;;;;;;5013306;28;20191;-84
2021/01/13 13:06:59;;;;;;;0.00;0.00;;;6.10;99.90;;;;;;5013903;28;20206;-84
2021/01/13 13:09:25;;;;;;;0.37;0.20;;;6.10;99.90;;;;;;5013825;28;20226;-83
2021/01/13 13:11:51;;;;;;;0.37;0.20;;;6.30;99.90;;;;;;5014848;28;20209;-84
2021/01/13 13:14:17;;;;;;;0.30;0.30;;;6.40;99.90;;;;;;5013498;28;20290;-83
2021/01/13 13:16:43;;;;;;;0.20;0.20;;;6.60;99.90;;;;;;5014480;28;20749;-83
2021/01/13 13:19:10;;;;;;;0.00;0.00;;;6.80;99.90;;;;;;5015183;28;20214;-83
2021/01/13 13:21:36;;;;;;;0.00;0.00;;;7.00;99.90;;;;;;5013822;28;20194;-84
2021/01/13 13:24:01;;;;;;;0.20;0.20;;;6.80;99.90;;;;;;5015530;28;20186;-84
2021/01/13 13:26:27;;;;;;;0.07;0.07;;;6.50;99.90;;;;;;5015421;28;20193;-84